• Join FlightAware (Why Join?)
  • Login
  • US Flag 
06:09PM EDT


 

Airport Tracker/Info


-or-


 

Live Flight TrackerFlight Track Log ✈ XA-PBT ✈ 12-Jul-2013 ✈ KBRO - MMAN / NTR

Flight Track Log - Related Links

Times and Time Zones

All times are in EDT time to prevent confusion due to time zone crossing. See the XA-PBT flight status page for this flight to view local times or setup timezone preferences in your user account.

Time Position Orientation Groundspeed Altitude Reporting Facility
EDT Latitude Longitude Course Direction KTS MPH feet Rate Location/Type
09:31PM 25.9019 -97.4197 135° Southeast 202 232 400  Level Houston Center
09:32PM 25.8756 -97.3908 135° Southeast 146 168 3,900 3,360 Climbing Houston Center
09:33PM 25.8511 -97.3642 136° Southeast 191 220 5,400 2,880 Climbing Houston Center
09:34PM 25.7897 -97.3853 197° South 263 303 8,600 3,240 Climbing Houston Center
09:35PM 25.7756 -97.4733 260° West 293 337 12,100 3,360 Climbing Houston Center
09:36PM 25.7711 -97.5636 267° West 295 339 15,600 2,760 Climbing Houston Center
09:37PM 25.7728 -97.6653 271° West 303 349 17,800 1,140 Climbing Houston Center
09:38PM 25.7728 -97.7831 270° West 374 430 18,000 60 Climbing Houston Center
09:39PM 25.7742 -97.9042 271° West 389 448 18,000  Level Houston Center
09:40PM 25.7736 -98.0258 270° West 393 452 18,000  Level Houston Center
09:41PM 25.7750 -98.1586 271° West 398 458 18,000  Level Houston Center
09:42PM 25.7758 -98.2831 270° West 402 463 18,000  Level Houston Center
09:43PM 25.7767 -98.4069 270° West 401 461 18,000  Level Houston Center
09:44PM 25.7758 -98.5397 270° West 402 463 18,000  Level Houston Center
09:45PM 25.7767 -98.6636 270° West 400 460 18,000  Level Houston Center
09:46PM 25.7775 -98.7728 271° West 402 463 18,000  Level Houston Center
09:47PM 25.7775 -98.8969 270° West 403 464 18,000  Level Houston Center
09:48PM 25.7767 -99.0219 270° West 403 464 18,000  Level Houston Center
09:49PM 25.7778 -99.1458 271° West 403 464 18,000 -240 Level Houston Center
09:50PM 25.7783 -99.2933 270° West 402 463 17,600 -1,140 Descending Houston Center
09:51PM 25.8081 -99.4119 286° West 401 461 15,700 -1,860 Descending Houston Center
09:52PM 25.8358 -99.5214 286° West 390 449 13,800 -1,560 Descending Houston Center
09:53PM 25.8650 -99.6339 286° West 382 440 12,600 -1,500 Descending Houston Center
09:54PM 25.8933 -99.7400 287° West 376 433 10,800 -1,500 Descending Houston Center
09:55PM 25.9156 -99.8278 286° West 352 405 9,600 -1,380 Descending Houston Center
09:56PM 25.9342 -99.9028 285° West 306 352 8,000 -1,620 Descending Houston Center
09:57PM 25.9522 -99.9797 285° West 278 320 6,300 -1,140 Descending Houston Center
09:58PM 25.9778 -100.0775 286° West 275 316 5,700 -600 Descending Houston Center